Aviation Digital Data Service (ADDS)

Output produced by METARs form (0917 UTC 19 April 2019)
found at http://www.aviationweather.gov/metar/data/
 
Forecast for: VDSV (SIHANOUKVILLE , KH)
Text: TAF VDSV 190500Z 1906/1924 22006KT 9999 SCT017
Forecast period: 0600 UTC 19 April 2019 to 0000 UTC 20 April 2019
Forecast type: FROM: standard forecast or significant change
Winds: from the SW (220 degrees) at 7 MPH (6 knots; 3.1 m/s)
Visibility: 6 or more miles 10+ km)
Ceiling: at least 12,000 feet AGL
Clouds: scattered clouds at 1700 feet AGL
Weather: no significant weather forecast for this period
Text: TEMPO 1907/1912 SCT015 FEW017CB
Forecast period: 0700 to 1200 UTC 19 April 2019
Forecast type: TEMPORARY: The following changes expected for less than half the time period
Visibility: missing
Ceiling: at least 12,000 feet AGL
Clouds: scattered clouds at 1500 feet AGL
few clouds at 1700 feet AGL
Weather: no significant weather forecast for this period